Time;durP1;ratioP1;P1;durP2;ratioP2;P2;SDS_P1;SDS_P2;PMS_P1;PMS_P2;Temp;Humidity;BMP_temperature;BMP_pressure;BME280_temperature;BME280_humidity;BME280_pressure;Samples;Min_cycle;Max_cycle;Signal;HPM_P1;HPM_P2
2023/08/07 00:00:46;;;;;;;14.93;10.80;;;;;;;22.65;76.86;99630.78;4927550;29;20171;-89
2023/08/07 00:03:18;;;;;;;17.17;11.07;;;;;;;22.47;76.95;99602.78;4903578;29;20812;-88
2023/08/07 00:05:51;;;;;;;21.15;11.38;;;;;;;22.58;77.08;99620.38;4906922;29;20048;-87
2023/08/07 00:08:18;;;;;;;19.77;11.15;;;;;;;22.38;77.06;99594.75;4896728;29;20427;-88
2023/08/07 00:10:44;;;;;;;24.02;13.02;;;;;;;22.34;77.09;99599.50;4900549;29;20060;-89
2023/08/07 00:13:09;;;;;;;21.25;11.70;;;;;;;22.35;77.33;99592.78;4916779;29;20055;-89
2023/08/07 00:15:38;;;;;;;15.97;11.57;;;;;;;22.50;77.13;99618.75;4883687;29;20047;-90
2023/08/07 00:18:05;;;;;;;17.30;10.43;;;;;;;22.29;77.11;99602.66;4920855;29;20103;-89
2023/08/07 00:20:31;;;;;;;21.95;10.85;;;;;;;22.23;77.26;99598.63;4878773;29;20047;-90
2023/08/07 00:22:57;;;;;;;17.65;10.40;;;;;;;22.31;77.13;99613.41;4899996;29;20039;-89
2023/08/07 00:25:23;;;;;;;20.43;11.00;;;;;;;22.30;77.38;99609.81;4916586;29;20043;-89
2023/08/07 00:27:50;;;;;;;22.27;10.65;;;;;;;22.33;77.27;99611.03;4916760;29;20082;-89
2023/08/07 00:30:16;;;;;;;21.08;10.75;;;;;;;22.20;77.42;99589.06;4891977;29;20071;-89
2023/08/07 00:32:43;;;;;;;20.73;10.75;;;;;;;22.24;77.61;99608.56;4900759;29;20048;-88
2023/08/07 00:35:09;;;;;;;20.53;10.77;;;;;;;22.22;77.60;99606.19;4899774;29;20076;-88
2023/08/07 00:37:35;;;;;;;26.70;11.18;;;;;;;22.17;77.88;99600.97;4900477;29;20284;-87
2023/08/07 00:40:02;;;;;;;17.38;10.82;;;;;;;22.13;77.77;99600.09;4905266;29;20036;-88
2023/08/07 00:42:29;;;;;;;17.52;10.07;;;;;;;22.20;77.54;99611.31;4918392;29;20055;-87
2023/08/07 00:44:55;;;;;;;19.43;10.30;;;;;;;22.05;77.79;99590.06;4901650;29;20437;-88
2023/08/07 00:47:22;;;;;;;33.53;11.15;;;;;;;22.23;77.56;99616.13;4899923;29;20517;-87
2023/08/07 00:49:48;;;;;;;34.08;10.60;;;;;;;22.17;77.40;99614.09;4903005;29;20043;-87
2023/08/07 00:52:15;;;;;;;15.48;10.05;;;;;;;22.14;77.42;99614.81;4902395;29;20036;-87
2023/08/07 00:54:41;;;;;;;18.33;9.88;;;;;;;22.08;77.36;99608.00;4907058;29;20047;-87
2023/08/07 00:57:11;;;;;;;;;;;;;;;22.14;77.40;99621.19;4870082;29;20139;-87
2023/08/07 00:59:38;;;;;;;22.70;9.98;;;;;;;21.96;77.37;99586.81;4865800;29;19990;-87
2023/08/07 01:02:04;;;;;;;17.20;10.32;;;;;;;21.98;77.38;99595.56;4882994;29;20047;-88
2023/08/07 01:04:31;;;;;;;17.48;10.20;;;;;;;22.08;77.45;99611.56;4883468;29;20047;-87
2023/08/07 01:06:57;;;;;;;16.10;10.02;;;;;;;21.99;77.58;99600.78;4907278;29;20048;-88
2023/08/07 01:09:25;;;;;;;16.17;9.90;;;;;;;21.89;77.37;99579.19;4886957;29;20040;-87
2023/08/07 01:12:09;;;;;;;14.85;9.60;;;;;;;21.95;77.31;99590.78;4888102;29;20051;-87
2023/08/07 01:14:44;;;;;;;18.70;9.63;;;;;;;22.03;77.19;99606.38;4900136;29;20577;-87
2023/08/07 01:17:21;;;;;;;16.35;10.18;;;;;;;22.01;77.21;99600.38;4880167;29;20144;-87
2023/08/07 01:19:49;;;;;;;31.27;9.93;;;;;;;21.91;77.02;99593.53;4899002;29;20581;-87
2023/08/07 01:22:17;;;;;;;21.27;10.48;;;;;;;21.92;76.81;99578.44;4898764;29;20083;-88
2023/08/07 01:24:48;;;;;;;19.10;9.43;;;;;;;21.85;76.89;99580.34;4899199;29;20044;-88
2023/08/07 01:27:19;;;;;;;21.17;9.40;;;;;;;21.90;77.08;99591.13;4885769;29;20068;-88
2023/08/07 01:30:08;;;;;;;18.83;9.45;;;;;;;21.97;76.90;99597.56;4934850;29;20066;-87
2023/08/07 01:32:53;;;;;;;16.13;9.63;;;;;;;21.74;76.87;99563.53;4885154;29;20475;-88
2023/08/07 01:35:25;;;;;;;15.23;9.70;;;;;;;21.77;76.72;99571.13;4900763;29;20135;-88
2023/08/07 01:37:53;;;;;;;17.27;10.00;;;;;;;21.79;77.03;99575.13;4884415;29;20047;-87
2023/08/07 01:40:20;;;;;;;14.38;9.70;;;;;;;21.88;77.02;99588.72;4867568;29;20581;-87
2023/08/07 01:42:47;;;;;;;15.60;9.82;;;;;;;21.79;77.00;99580.69;4887561;29;20422;-87
2023/08/07 01:45:13;;;;;;;16.02;9.82;;;;;;;21.87;77.19;99589.91;4915728;29;20104;-87
2023/08/07 01:47:39;;;;;;;20.77;9.98;;;;;;;21.78;76.90;99581.84;4898901;29;20083;-87
2023/08/07 01:50:06;;;;;;;21.25;9.68;;;;;;;21.80;77.05;99587.06;4916621;29;20044;-88
2023/08/07 01:52:32;;;;;;;17.95;9.38;;;;;;;21.85;77.37;99588.69;4916296;29;20536;-87
2023/08/07 01:54:58;;;;;;;20.17;9.90;;;;;;;21.77;76.90;99583.03;4921220;29;20048;-87
2023/08/07 01:57:25;;;;;;;15.15;10.40;;;;;;;21.66;77.21;99571.03;4868746;29;20044;-88
2023/08/07 01:59:52;;;;;;;12.80;9.60;;;;;;;21.75;77.12;99587.38;4887212;29;20051;-86
2023/08/07 02:02:17;;;;;;;;;;;;;;;21.81;77.12;99595.00;4901567;29;20044;-89
2023/08/07 02:04:43;;;;;;;14.77;9.68;;;;;;;21.65;76.98;99572.19;4914837;29;20027;-88
2023/08/07 02:07:09;;;;;;;17.37;9.47;;;;;;;21.49;77.10;99552.97;4886330;29;20055;-87
2023/08/07 02:09:35;;;;;;;13.13;9.53;;;;;;;21.69;77.04;99577.78;4901819;29;20303;-87
2023/08/07 02:12:01;;;;;;;15.37;9.50;;;;;;;21.63;77.13;99571.78;4888808;29;20048;-87
2023/08/07 02:14:27;;;;;;;;;;;;;;;21.79;76.92;99586.25;4902938;29;20422;-88
2023/08/07 02:16:53;;;;;;;16.73;9.65;;;;;;;21.76;77.28;99595.38;4921512;29;19923;-90
2023/08/07 02:19:19;;;;;;;19.27;9.30;;;;;;;21.63;77.51;99580.13;4936328;29;20572;-87
2023/08/07 02:21:45;;;;;;;24.10;9.57;;;;;;;21.67;77.25;99582.94;4904335;29;20457;-88
2023/08/07 02:24:11;;;;;;;14.85;10.07;;;;;;;21.75;77.24;99592.94;4920611;29;20040;-87
2023/08/07 02:26:38;;;;;;;14.60;9.45;;;;;;;21.65;77.17;99576.94;4921001;29;20063;-87
2023/08/07 02:29:06;;;;;;;23.43;10.90;;;;;;;21.62;77.17;99558.22;4903408;29;20506;-88
2023/08/07 02:31:32;;;;;;;22.52;10.15;;;;;;;21.78;77.23;99593.00;4918928;29;20043;-87
2023/08/07 02:33:58;;;;;;;16.53;10.37;;;;;;;21.71;77.23;99583.78;4937643;29;20191;-89
2023/08/07 02:36:24;;;;;;;16.07;10.47;;;;;;;21.79;77.17;99586.25;4886400;29;20071;-86
2023/08/07 02:38:50;;;;;;;19.43;10.47;;;;;;;21.69;77.05;99567.47;4921374;29;20295;-88
2023/08/07 02:41:15;;;;;;;16.10;9.80;;;;;;;21.77;77.03;99583.03;4887435;29;20050;-87
2023/08/07 02:43:41;;;;;;;22.50;10.87;;;;;;;21.80;77.12;99575.94;4904066;29;20525;-86
2023/08/07 02:46:08;;;;;;;19.15;9.70;;;;;;;21.72;76.84;99574.22;4921185;29;20174;-85
2023/08/07 02:48:34;;;;;;;23.03;10.03;;;;;;;21.70;77.01;99569.06;4920836;29;20075;-88
2023/08/07 02:51:00;;;;;;;17.97;10.53;;;;;;;21.73;76.99;99561.94;4909803;29;20296;-87
2023/08/07 02:53:26;;;;;;;19.07;10.03;;;;;;;21.81;76.88;99577.50;4904078;29;20465;-88
2023/08/07 02:55:52;;;;;;;16.15;9.80;;;;;;;21.78;76.54;99561.59;4901801;29;20514;-86
2023/08/07 02:58:17;;;;;;;14.77;10.67;;;;;;;21.80;76.25;99573.94;4918652;29;20051;-88
2023/08/07 03:00:43;;;;;;;16.17;9.67;;;;;;;21.91;76.49;99584.38;4907606;29;20115;-88
2023/08/07 03:03:09;;;;;;;17.07;10.20;;;;;;;21.73;76.56;99557.19;4902824;29;20038;-85
2023/08/07 03:05:35;;;;;;;23.40;10.23;;;;;;;21.85;76.50;99578.34;4923543;29;20053;-88
2023/08/07 03:08:01;;;;;;;20.03;10.13;;;;;;;21.89;76.50;99589.53;4913984;29;20044;-84
2023/08/07 03:10:27;;;;;;;24.03;10.63;;;;;;;21.84;76.38;99562.84;4920850;29;20300;-85
2023/08/07 03:12:53;;;;;;;22.90;9.93;;;;;;;21.91;76.24;99571.25;4901183;29;20422;-85
2023/08/07 03:15:19;;;;;;;15.37;9.73;;;;;;;21.94;76.11;99576.06;4905836;29;20052;-86
2023/08/07 03:17:45;;;;;;;17.30;9.80;;;;;;;21.98;75.99;99573.31;4888020;29;20040;-85
2023/08/07 03:20:11;;;;;;;13.82;9.07;;;;;;;22.00;75.75;99570.94;4904204;29;20473;-89
2023/08/07 03:22:37;;;;;;;22.25;10.02;;;;;;;22.10;75.87;99586.16;4890387;29;20096;-86
2023/08/07 03:25:03;;;;;;;19.43;10.33;;;;;;;22.06;75.60;99574.97;4907915;29;20076;-87
2023/08/07 03:27:29;;;;;;;;;;;;;;;22.18;75.81;99591.41;4918133;29;20295;-84
2023/08/07 03:29:56;;;;;;;14.57;9.90;;;;;;;22.08;75.53;99569.81;4900314;29;20407;-86
2023/08/07 03:32:27;;;;;;;14.02;9.43;;;;;;;22.13;75.34;99572.25;4904628;29;20059;-85
2023/08/07 03:34:53;;;;;;;16.05;9.35;;;;;;;22.14;75.45;99565.50;4902472;29;20056;-84
2023/08/07 03:37:19;;;;;;;48.72;9.85;;;;;;;22.19;75.28;99559.63;4922937;29;20096;-88
2023/08/07 03:39:48;;;;;;;21.20;9.63;;;;;;;22.32;75.08;99579.63;4901766;29;20063;-85
2023/08/07 03:42:15;;;;;;;21.58;9.57;;;;;;;22.38;74.91;99582.81;4904261;29;20052;-85
2023/08/07 03:44:44;;;;;;;15.48;8.65;;;;;;;22.35;74.36;99572.44;4903049;29;20082;-86
2023/08/07 03:47:12;;;;;;;20.70;8.85;;;;;;;22.54;73.85;99591.69;4909160;29;20054;-86
2023/08/07 03:49:38;;;;;;;40.33;9.73;;;;;;;22.42;74.28;99564.16;4909235;29;20135;-86
2023/08/07 03:52:04;;;;;;;33.13;9.23;;;;;;;22.54;73.87;99583.34;4912876;29;20040;-88
2023/08/07 03:54:30;;;;;;;14.48;8.63;;;;;;;22.57;73.91;99576.19;4900224;29;20510;-84
2023/08/07 03:56:57;;;;;;;18.92;9.45;;;;;;;22.56;74.01;99566.25;4911425;29;20359;-84
2023/08/07 03:59:23;;;;;;;14.73;8.93;;;;;;;22.71;74.00;99571.53;4899535;29;20090;-84
2023/08/07 04:01:49;;;;;;;19.77;9.20;;;;;;;22.72;73.65;99564.75;4917163;29;20059;-85
2023/08/07 04:04:15;;;;;;;19.13;8.27;;;;;;;22.91;72.94;99582.38;4923165;29;20123;-88
2023/08/07 04:06:41;;;;;;;24.57;8.43;;;;;;;22.87;72.53;99573.19;4926621;29;20058;-87
2023/08/07 04:09:10;;;;;;;20.85;8.93;;;;;;;22.89;71.83;99559.69;4945076;29;20059;-85
2023/08/07 04:11:36;;;;;;;20.10;8.25;;;;;;;22.95;72.02;99558.16;4924389;29;20040;-85
2023/08/07 04:14:03;;;;;;;42.00;8.70;;;;;;;23.13;71.56;99578.53;4906295;29;20467;-85
2023/08/07 04:16:31;;;;;;;;;;;;;;;23.21;71.49;99579.38;4909245;29;20079;-88
2023/08/07 04:18:57;;;;;;;15.88;7.88;;;;;;;23.24;71.13;99575.00;4925330;29;19927;-87
2023/08/07 04:21:23;;;;;;;19.35;8.30;;;;;;;23.17;70.80;99565.41;4937537;29;20051;-85
2023/08/07 04:23:50;;;;;;;23.80;7.53;;;;;;;23.33;70.81;99576.22;4939562;29;20523;-86
2023/08/07 04:26:16;;;;;;;21.92;7.30;;;;;;;23.43;70.87;99575.47;4925607;29;20044;-86
2023/08/07 04:28:47;;;;;;;18.70;7.80;;;;;;;23.51;69.97;99584.69;4923995;29;20036;-85
2023/08/07 04:31:13;;;;;;;24.17;7.40;;;;;;;23.34;69.75;99549.13;4883920;29;20268;-87
2023/08/07 04:33:41;;;;;;;21.63;7.43;;;;;;;23.62;70.26;99582.72;4893092;29;20080;-87
2023/08/07 04:36:10;;;;;;;16.00;7.15;;;;;;;23.71;69.42;99589.94;4927608;29;20059;-86
2023/08/07 04:38:36;;;;;;;18.55;7.53;;;;;;;23.69;69.65;99570.78;4911572;29;20178;-86
2023/08/07 04:41:03;;;;;;;19.38;7.43;;;;;;;23.67;68.82;99550.81;4924649;29;20056;-86
2023/08/07 04:43:29;;;;;;;11.85;7.35;;;;;;;23.95;68.20;99577.22;4944638;29;20151;-83
2023/08/07 04:45:55;;;;;;;19.83;7.15;;;;;;;24.01;67.48;99567.25;4896027;29;20052;-85
2023/08/07 04:48:25;;;;;;;12.75;6.25;;;;;;;24.07;67.11;99544.13;4902746;29;20044;-84
2023/08/07 04:50:51;;;;;;;23.42;6.78;;;;;;;24.27;66.58;99558.50;4886291;29;20458;-84
2023/08/07 04:53:17;;;;;;;16.85;7.10;;;;;;;24.47;66.15;99572.88;4919032;29;20471;-84
2023/08/07 04:55:43;;;;;;;18.30;6.90;;;;;;;24.49;66.14;99558.50;4905801;29;20048;-84
2023/08/07 04:58:09;;;;;;;16.23;7.00;;;;;;;24.65;65.29;99549.69;4933229;29;20054;-84
2023/08/07 05:00:35;;;;;;;17.25;6.78;;;;;;;24.68;63.76;99544.09;4920933;29;20138;-84
2023/08/07 05:03:01;;;;;;;;;;;;;;;24.93;63.67;99566.38;4920498;29;20051;-83
2023/08/07 05:05:27;;;;;;;13.48;6.40;;;;;;;24.93;62.61;99552.38;4886877;29;19923;-85
2023/08/07 05:07:55;;;;;;;21.17;6.80;;;;;;;25.00;62.66;99549.59;4901398;29;20040;-84
2023/08/07 05:10:22;;;;;;;17.75;6.30;;;;;;;25.13;62.98;99552.75;4918458;29;20459;-84
2023/08/07 05:12:48;;;;;;;16.83;6.15;;;;;;;25.08;62.10;99531.56;4919634;29;20068;-85
2023/08/07 05:15:14;;;;;;;19.60;6.20;;;;;;;25.21;61.96;99529.16;4920183;29;20205;-83
2023/08/07 05:17:40;;;;;;;20.48;6.65;;;;;;;25.40;61.09;99550.25;4915473;29;20099;-84
2023/08/07 05:20:08;;;;;;;16.42;6.00;;;;;;;25.47;60.59;99538.22;4903085;29;20042;-83
2023/08/07 05:22:34;;;;;;;14.30;5.88;;;;;;;25.43;60.79;99531.81;4918524;29;20417;-84
2023/08/07 05:25:00;;;;;;;18.35;6.10;;;;;;;25.61;60.36;99545.72;4918167;29;20055;-84
2023/08/07 05:27:26;;;;;;;21.20;6.22;;;;;;;25.70;60.51;99543.28;4927803;29;20035;-83
2023/08/07 05:29:52;;;;;;;19.73;5.90;;;;;;;25.65;59.37;99527.69;4921727;29;20048;-88
2023/08/07 05:32:18;;;;;;;14.77;5.78;;;;;;;25.63;59.78;99537.69;4903376;29;20092;-89
2023/08/07 05:34:44;;;;;;;14.30;5.43;;;;;;;25.66;59.33;99537.69;4902387;29;20142;-88
2023/08/07 05:37:10;;;;;;;35.97;6.05;;;;;;;25.51;58.91;99522.97;4908113;29;20036;-88
2023/08/07 05:39:36;;;;;;;17.45;5.68;;;;;;;25.54;59.54;99518.56;4916636;29;20139;-88
2023/08/07 05:42:02;;;;;;;13.32;5.53;;;;;;;25.54;58.11;99522.16;4924415;29;20127;-88
2023/08/07 05:44:29;;;;;;;14.35;5.55;;;;;;;25.58;58.93;99529.75;4922994;29;20134;-88
2023/08/07 05:46:55;;;;;;;12.27;4.88;;;;;;;25.69;58.78;99530.47;4891050;29;20036;-88
2023/08/07 05:49:21;;;;;;;27.13;5.78;;;;;;;25.61;57.95;99518.53;4907097;29;20054;-86
2023/08/07 05:51:47;;;;;;;19.38;5.40;;;;;;;25.68;57.32;99517.69;4906387;29;20044;-87
2023/08/07 05:54:13;;;;;;;21.58;5.25;;;;;;;25.68;57.46;99510.06;4908880;29;20039;-86
2023/08/07 05:56:41;;;;;;;13.15;5.35;;;;;;;25.72;57.09;99510.03;4921814;29;20056;-87
2023/08/07 05:59:07;;;;;;;22.95;4.60;;;;;;;25.79;57.55;99518.38;4907654;29;20088;-87
2023/08/07 06:01:33;;;;;;;40.45;5.28;;;;;;;25.78;57.48;99505.59;4906679;29;20391;-87
2023/08/07 06:04:00;;;;;;;25.02;4.85;;;;;;;25.94;57.06;99524.72;4928343;29;20042;-88
2023/08/07 06:06:28;;;;;;;22.25;4.75;;;;;;;25.84;56.42;99492.00;4906866;29;20052;-89
2023/08/07 06:08:56;;;;;;;11.70;4.65;;;;;;;25.94;57.13;99500.31;4907575;29;20036;-88
2023/08/07 06:11:23;;;;;;;8.90;4.80;;;;;;;25.96;56.48;99497.91;4924235;29;20040;-88
2023/08/07 06:13:49;;;;;;;19.75;5.35;;;;;;;25.96;56.28;99489.50;4891592;29;20048;-88
2023/08/07 06:16:15;;;;;;;25.95;5.38;;;;;;;26.06;56.38;99498.19;4938276;29;20232;-88
2023/08/07 06:18:41;;;;;;;28.33;5.45;;;;;;;26.17;55.11;99510.91;4910748;29;20039;-87
2023/08/07 06:21:07;;;;;;;24.77;5.18;;;;;;;26.19;55.40;99508.50;4897975;29;20072;-87
2023/08/07 06:23:34;;;;;;;15.80;4.72;;;;;;;26.21;55.29;99513.69;4941123;29;20064;-88
2023/08/07 06:26:04;;;;;;;11.68;5.03;;;;;;;26.29;55.36;99515.22;4898283;29;20052;-88
2023/08/07 06:28:34;;;;;;;23.70;4.88;;;;;;;26.37;53.99;99518.75;4898451;29;20070;-89
2023/08/07 06:31:07;;;;;;;20.77;4.88;;;;;;;26.45;54.18;99517.44;4921792;29;20071;-91
2023/08/07 06:33:34;;;;;;;19.23;5.55;;;;;;;26.47;54.38;99520.66;4937680;29;20043;-87
2023/08/07 06:36:00;;;;;;;18.30;4.60;;;;;;;26.39;53.85;99497.50;4915569;29;20143;-89
2023/08/07 06:38:27;;;;;;;10.27;4.43;;;;;;;26.59;53.54;99517.34;4893444;29;20044;-89
2023/08/07 06:40:53;;;;;;;62.15;6.03;;;;;;;26.51;54.80;99496.19;4925854;29;20047;-89
2023/08/07 06:43:19;;;;;;;41.47;5.63;;;;;;;26.59;54.70;99499.72;4914885;29;20572;-89
2023/08/07 06:45:55;;;;;;;12.32;4.63;;;;;;;26.67;53.43;99496.41;4946501;29;20078;-90
2023/08/07 06:48:22;;;;;;;10.50;4.35;;;;;;;26.83;52.28;99517.50;4915947;29;20502;-91
2023/08/07 06:50:52;;;;;;;13.48;4.35;;;;;;;26.77;52.25;99486.28;4913121;29;20055;-89
2023/08/07 06:53:24;;;;;;;22.25;4.47;;;;;;;26.93;52.39;99514.56;4928757;29;20100;-88
2023/08/07 06:55:51;;;;;;;12.20;4.35;;;;;;;26.78;51.89;99473.06;4894479;29;20055;-90
2023/08/07 06:58:20;;;;;;;24.95;5.05;;;;;;;26.97;51.59;99499.69;4910933;29;20056;-87
2023/08/07 07:00:47;;;;;;;20.60;4.20;;;;;;;26.92;51.65;99482.09;4897724;29;20092;-87
2023/08/07 07:03:14;;;;;;;17.83;4.47;;;;;;;26.97;52.73;99480.03;4926657;29;20051;-88
2023/08/07 07:05:42;;;;;;;19.85;4.72;;;;;;;27.00;50.73;99482.81;4913254;29;20047;-89
2023/08/07 07:08:10;;;;;;;26.52;4.65;;;;;;;27.05;50.48;99487.13;4947469;29;20050;-87
2023/08/07 07:10:37;;;;;;;21.02;4.63;;;;;;;27.16;51.12;99490.66;4879428;29;20043;-85
2023/08/07 07:13:09;;;;;;;21.60;5.15;;;;;;;27.23;51.01;99493.34;4934279;29;20139;-90
2023/08/07 07:15:36;;;;;;;12.23;3.80;;;;;;;27.21;51.12;99483.75;4927171;29;20086;-92
2023/08/07 07:18:02;;;;;;;16.67;4.05;;;;;;;27.28;50.12;99481.63;4914917;29;20036;-88
2023/08/07 07:20:28;;;;;;;40.45;5.22;;;;;;;27.15;49.25;99452.56;4930130;29;20040;-88
2023/08/07 07:22:54;;;;;;;25.05;4.28;;;;;;;27.38;49.92;99477.91;4931211;29;20090;-88
2023/08/07 07:25:20;;;;;;;14.73;4.22;;;;;;;27.42;49.88;99475.06;4922118;29;20548;-91
2023/08/07 07:27:46;;;;;;;206.77;11.32;;;;;;;27.59;50.78;99484.41;4912477;29;20046;-88
2023/08/07 07:30:13;;;;;;;9.98;4.15;;;;;;;27.61;50.11;99484.78;4877692;29;20122;-89
2023/08/07 07:32:39;;;;;;;17.27;3.75;;;;;;;27.59;48.45;99476.00;4922631;29;20036;-89
2023/08/07 07:35:05;;;;;;;17.38;4.03;;;;;;;27.82;49.56;99486.50;4920814;29;20127;-83
2023/08/07 07:37:32;;;;;;;16.80;4.47;;;;;;;27.92;50.38;99482.72;4923312;29;20123;-84
2023/08/07 07:39:58;;;;;;;12.70;4.05;;;;;;;27.93;50.56;99461.03;4926125;29;20035;-84
2023/08/07 07:42:23;;;;;;;12.70;3.90;;;;;;;28.08;49.88;99459.56;4910261;29;20069;-83
2023/08/07 07:44:54;;;;;;;18.23;4.57;;;;;;;28.26;48.61;99465.66;4934946;29;20079;-85
2023/08/07 07:47:21;;;;;;;15.27;4.00;;;;;;;28.31;49.21;99462.34;4904221;29;20067;-85
2023/08/07 07:49:47;;;;;;;23.50;4.60;;;;;;;28.37;48.13;99471.06;4904975;29;20052;-84
2023/08/07 07:52:14;;;;;;;14.05;4.05;;;;;;;28.33;48.53;99459.09;4922742;29;20675;-86
2023/08/07 07:54:39;;;;;;;;;;;;;;;28.34;47.14;99467.13;4901797;29;20055;-83
2023/08/07 07:57:06;;;;;;;20.25;4.20;;;;;;;28.23;46.90;99455.25;4900665;29;19970;-84
2023/08/07 07:59:32;;;;;;;65.03;5.00;;;;;;;28.23;47.23;99463.69;4919051;29;20138;-86
2023/08/07 08:02:02;;;;;;;17.45;4.15;;;;;;;28.32;47.05;99469.56;4885060;29;20047;-85
2023/08/07 08:04:29;;;;;;;29.33;4.25;;;;;;;28.14;47.26;99429.72;4918584;29;20265;-84
2023/08/07 08:06:55;;;;;;;12.32;3.80;;;;;;;28.36;46.10;99461.03;4902589;29;20443;-84
2023/08/07 08:09:21;;;;;;;15.75;4.00;;;;;;;28.39;46.08;99445.34;4899084;29;20051;-86
2023/08/07 08:11:47;;;;;;;19.20;3.55;;;;;;;28.42;45.69;99450.94;4920740;29;20573;-86
2023/08/07 08:14:13;;;;;;;45.20;4.95;;;;;;;28.48;45.39;99457.63;4899863;29;20533;-83
2023/08/07 08:16:40;;;;;;;38.33;4.68;;;;;;;28.43;46.33;99460.94;4920593;29;20039;-86
2023/08/07 08:19:08;;;;;;;12.25;3.88;;;;;;;28.39;45.65;99448.97;4923019;29;20434;-86
2023/08/07 08:21:34;;;;;;;10.25;4.18;;;;;;;28.42;47.05;99441.69;4916743;29;20502;-85
2023/08/07 08:24:00;;;;;;;13.57;3.90;;;;;;;28.51;46.01;99462.41;4917071;29;20426;-84
2023/08/07 08:26:26;;;;;;;14.70;3.65;;;;;;;28.55;46.91;99445.44;4918394;29;20518;-83
2023/08/07 08:28:52;;;;;;;21.80;3.65;;;;;;;28.61;45.85;99435.28;4932329;29;20063;-84
2023/08/07 08:31:19;;;;;;;13.27;3.95;;;;;;;28.71;44.69;99437.09;4925022;29;20040;-82
2023/08/07 08:33:45;;;;;;;36.38;4.93;;;;;;;28.76;45.29;99438.59;4887813;29;20752;-83
2023/08/07 08:36:11;;;;;;;24.30;4.53;;;;;;;28.75;47.06;99429.34;4915813;29;20135;-81
2023/08/07 08:38:38;;;;;;;12.68;4.50;;;;;;;28.80;45.70;99422.41;4898283;29;20039;-84
2023/08/07 08:41:08;;;;;;;;;;;;;;;28.97;47.10;99434.50;4889900;29;20391;-83
2023/08/07 08:43:38;;;;;;;21.63;4.00;;;;;;;28.96;45.68;99425.28;4923676;29;19923;-83
2023/08/07 08:46:08;;;;;;;15.05;4.43;;;;;;;29.05;45.67;99424.72;4919795;29;20040;-85
2023/08/07 08:48:39;;;;;;;13.05;4.25;;;;;;;29.08;45.98;99406.19;4918732;29;20047;-83
2023/08/07 08:51:07;;;;;;;25.10;4.20;;;;;;;29.20;46.46;99428.00;4912380;29;20052;-84
2023/08/07 08:53:33;;;;;;;11.90;3.95;;;;;;;29.24;45.35;99412.63;4900643;29;20048;-83
2023/08/07 08:56:01;;;;;;;68.80;6.05;;;;;;;29.31;44.18;99406.03;4918483;29;20595;-81
2023/08/07 08:58:28;;;;;;;32.53;4.93;;;;;;;29.21;44.08;99401.44;4916554;29;20055;-83
2023/08/07 09:00:54;;;;;;;32.28;4.90;;;;;;;29.21;44.42;99399.44;4916687;29;20044;-82
2023/08/07 09:03:20;;;;;;;25.63;4.65;;;;;;;29.25;44.46;99402.94;4926492;29;20088;-82
2023/08/07 09:05:49;;;;;;;19.13;4.32;;;;;;;29.29;44.90;99411.31;4919580;29;20063;-83
2023/08/07 09:08:15;;;;;;;30.23;4.18;;;;;;;29.24;44.08;99395.75;4920556;29;20047;-84
2023/08/07 09:10:41;;;;;;;;;;;;;;;29.27;44.35;99414.56;4926927;29;20118;-84
2023/08/07 09:13:14;;;;;;;8.27;3.80;;;;;;;29.19;44.37;99382.16;4888480;29;19926;-83
2023/08/07 09:15:41;;;;;;;20.45;4.70;;;;;;;29.26;43.73;99404.53;4928758;29;20072;-85
2023/08/07 09:18:10;;;;;;;76.45;6.05;;;;;;;29.31;43.01;99402.44;4912388;29;20418;-87
2023/08/07 09:20:40;;;;;;;66.45;6.40;;;;;;;29.16;43.00;99368.19;4912341;29;20059;-86
2023/08/07 09:23:07;;;;;;;14.07;3.60;;;;;;;29.30;43.41;99390.34;4930088;29;20051;-86
2023/08/07 09:25:35;;;;;;;14.63;3.83;;;;;;;29.37;44.27;99397.84;4910458;29;20047;-87
2023/08/07 09:28:04;;;;;;;13.82;4.60;;;;;;;29.38;43.53;99388.19;4910888;29;20474;-86
2023/08/07 09:30:34;;;;;;;12.57;4.32;;;;;;;29.41;43.54;99396.53;4882442;29;20035;-88
2023/08/07 09:33:00;;;;;;;19.83;4.28;;;;;;;29.42;43.62;99391.69;4936880;29;20032;-89
2023/08/07 09:35:29;;;;;;;16.73;4.13;;;;;;;29.31;43.17;99371.47;4937546;29;20076;-89
2023/08/07 09:37:56;;;;;;;21.35;4.15;;;;;;;29.45;44.57;99377.53;4946306;29;20043;-85
2023/08/07 09:40:24;;;;;;;9.82;4.10;;;;;;;29.63;44.77;99376.31;4924372;29;20106;-86
2023/08/07 09:42:54;;;;;;;42.97;5.97;;;;;;;29.53;44.28;99344.31;4929991;29;20036;-85
2023/08/07 09:45:24;;;;;;;47.17;5.53;;;;;;;29.83;44.96;99376.19;4938053;29;20043;-85
2023/08/07 09:48:07;;;;;;;51.58;6.00;;;;;;;29.81;42.81;99371.00;4925932;29;20054;-86
2023/08/07 09:50:36;;;;;;;18.40;5.20;;;;;;;29.66;43.47;99344.44;4891889;29;20108;-86
2023/08/07 09:53:02;;;;;;;23.25;5.78;;;;;;;29.89;43.11;99368.78;4906997;29;20040;-87
2023/08/07 09:55:31;;;;;;;32.63;5.30;;;;;;;29.78;42.15;99343.72;4909678;29;20048;-88
2023/08/07 09:58:01;;;;;;;19.38;4.93;;;;;;;30.05;43.36;99353.88;4907266;29;20466;-86
2023/08/07 10:00:35;;;;;;;11.23;4.40;;;;;;;30.02;42.73;99338.63;4926592;29;20059;-86
2023/08/07 10:03:02;;;;;;;59.33;6.72;;;;;;;30.09;41.31;99344.06;4922561;29;20493;-86
2023/08/07 10:05:28;;;;;;;47.72;5.13;;;;;;;30.21;43.88;99356.66;4925932;29;20429;-87
2023/08/07 10:07:55;;;;;;;;;;;;;;;30.30;42.96;99351.19;4943125;29;20043;-87
2023/08/07 10:10:22;;;;;;;29.48;5.25;;;;;;;30.30;41.42;99353.19;4917051;29;19922;-87
2023/08/07 10:12:51;;;;;;;14.35;4.25;;;;;;;30.35;42.88;99359.06;4909013;29;20490;-88
2023/08/07 10:15:21;;;;;;;13.50;4.78;;;;;;;30.30;43.99;99341.91;4911149;29;20136;-87
2023/08/07 10:17:48;;;;;;;23.55;5.18;;;;;;;30.30;41.35;99341.91;4929118;29;20044;-86
2023/08/07 10:20:23;;;;;;;18.48;4.43;;;;;;;30.33;42.69;99324.91;4900636;29;20076;-84
2023/08/07 10:22:50;;;;;;;14.35;4.30;;;;;;;30.49;43.64;99340.16;4915269;29;20051;-85
2023/08/07 10:25:28;;;;;;;14.40;3.95;;;;;;;30.35;41.48;99310.34;4952637;29;20047;-85
2023/08/07 10:27:57;;;;;;;13.43;4.30;;;;;;;30.54;41.26;99322.69;4932715;29;20059;-85
2023/08/07 10:30:25;;;;;;;28.70;4.90;;;;;;;30.62;41.04;99319.16;4930022;29;20122;-87
2023/08/07 10:32:51;;;;;;;16.13;4.50;;;;;;;30.64;41.98;99318.75;4929249;29;20054;-87
2023/08/07 10:35:29;;;;;;;21.10;4.55;;;;;;;30.70;41.50;99302.03;4911430;29;20094;-86
2023/08/07 10:38:07;;;;;;;9.57;4.72;;;;;;;30.84;40.90;99313.69;4929397;29;20047;-85
2023/08/07 10:41:07;;;;;;;28.38;4.97;;;;;;;30.95;41.59;99335.16;4948270;29;20044;-87
2023/08/07 10:43:44;;;;;;;13.88;4.38;;;;;;;30.85;40.34;99303.19;4931515;29;20501;-87
2023/08/07 10:46:13;;;;;;;17.30;4.00;;;;;;;30.75;40.36;99287.34;4918731;29;20051;-86
2023/08/07 10:48:44;;;;;;;12.68;4.10;;;;;;;31.04;41.00;99312.66;4933978;29;20072;-88
2023/08/07 10:51:16;;;;;;;20.38;5.10;;;;;;;30.96;40.97;99288.72;4907525;29;20054;-87
2023/08/07 10:53:45;;;;;;;20.05;4.72;;;;;;;30.99;40.48;99280.13;4892749;29;20079;-88
2023/08/07 10:56:29;;;;;;;37.42;5.80;;;;;;;31.09;40.43;99287.50;4896500;29;20044;-88
2023/08/07 10:58:55;;;;;;;23.45;5.20;;;;;;;31.15;40.73;99278.44;4924678;29;20055;-87
2023/08/07 11:01:35;;;;;;;29.23;6.03;;;;;;;31.23;40.17;99280.56;4932167;29;20042;-87
2023/08/07 11:04:09;;;;;;;18.88;4.80;;;;;;;31.16;39.71;99272.34;4933279;29;20521;-87
2023/08/07 11:06:37;;;;;;;24.35;4.75;;;;;;;31.20;39.63;99273.00;4913147;29;20425;-89
2023/08/07 11:09:05;;;;;;;15.48;5.15;;;;;;;31.25;39.88;99272.41;4925695;29;20585;-88
2023/08/07 11:11:43;;;;;;;46.08;5.88;;;;;;;31.41;39.40;99298.97;4923909;29;20044;-88
2023/08/07 11:14:11;;;;;;;17.10;4.85;;;;;;;31.39;40.16;99288.13;4938578;29;20043;-87
2023/08/07 11:16:37;;;;;;;31.23;5.60;;;;;;;31.39;39.70;99290.97;4943646;29;20048;-87
2023/08/07 11:19:03;;;;;;;;;;;;;;;31.29;40.68;99281.59;4911137;29;20044;-88
2023/08/07 11:21:32;;;;;;;12.90;4.50;;;;;;;31.30;40.90;99260.56;4928305;29;19930;-88
2023/08/07 11:23:58;;;;;;;18.67;4.78;;;;;;;31.40;40.12;99253.00;4906801;29;20055;-88
2023/08/07 11:26:28;;;;;;;13.27;5.22;;;;;;;31.52;40.87;99276.78;4925788;29;20402;-88
2023/08/07 11:28:55;;;;;;;11.38;4.95;;;;;;;31.58;40.17;99258.78;4925664;29;20441;-88